createdAt,value
2019-02-21T00:02:06.018Z,23.70
2019-02-21T00:04:35.342Z,20.30
2019-02-21T00:07:04.683Z,19.77
2019-02-21T00:09:34.050Z,24.50
2019-02-21T00:12:03.514Z,23.57
2019-02-21T00:14:32.858Z,21.73
2019-02-21T00:17:02.179Z,21.20
2019-02-21T00:19:31.514Z,23.73
2019-02-21T00:22:01.719Z,24.07
2019-02-21T00:24:31.069Z,22.07
2019-02-21T00:27:00.558Z,23.47
2019-02-21T00:29:29.858Z,22.93
2019-02-21T00:31:59.198Z,22.70
2019-02-21T00:34:28.542Z,24.90
2019-02-21T00:36:57.893Z,27.47
2019-02-21T00:39:27.205Z,27.60
2019-02-21T00:41:56.578Z,25.00
2019-02-21T00:44:25.878Z,24.03
2019-02-21T00:46:55.243Z,25.00
2019-02-21T00:49:24.554Z,24.80
2019-02-21T00:51:55.027Z,24.37
2019-02-21T00:54:24.338Z,24.10
2019-02-21T00:56:53.685Z,29.83
2019-02-21T00:59:22.974Z,31.13
2019-02-21T01:01:52.270Z,30.67
2019-02-21T01:04:21.676Z,26.10
2019-02-21T01:06:51.001Z,25.80
2019-02-21T01:09:20.354Z,29.70
2019-02-21T01:11:49.650Z,29.10
2019-02-21T01:14:19.034Z,25.30
2019-02-21T01:16:48.397Z,28.60
2019-02-21T01:19:17.680Z,27.77
2019-02-21T01:21:47.374Z,28.77
2019-02-21T01:24:16.997Z,28.47
2019-02-21T01:26:46.282Z,33.90
2019-02-21T01:29:15.594Z,31.33
2019-02-21T01:31:44.907Z,36.73
2019-02-21T01:34:14.324Z,35.50
2019-02-21T01:36:43.790Z,31.43
2019-02-21T01:39:13.100Z,26.63
2019-02-21T01:41:42.434Z,30.27
2019-02-21T01:44:11.882Z,29.80
2019-02-21T01:46:41.202Z,29.60
2019-02-21T01:49:10.499Z,33.83
2019-02-21T01:51:39.822Z,30.43
2019-02-21T01:54:09.138Z,30.00
2019-02-21T01:56:38.566Z,31.97
2019-02-21T01:59:08.240Z,28.00
2019-02-21T02:01:37.575Z,30.67
2019-02-21T02:04:06.867Z,28.73
2019-02-21T02:06:36.149Z,30.10
2019-02-21T02:09:07.599Z,34.33
2019-02-21T02:11:36.935Z,25.83
2019-02-21T02:14:06.275Z,27.83
2019-02-21T02:16:35.573Z,21.73
2019-02-21T02:19:04.950Z,24.20
2019-02-21T02:21:34.259Z,27.43
2019-02-21T02:24:03.587Z,23.83
2019-02-21T02:26:32.966Z,28.40
2019-02-21T02:29:02.321Z,18.80
2019-02-21T02:31:31.638Z,30.67
2019-02-21T02:34:00.947Z,32.57
2019-02-21T02:36:30.288Z,27.80
2019-02-21T02:38:59.599Z,27.57
2019-02-21T02:41:28.930Z,27.53
2019-02-21T02:43:58.242Z,30.93
2019-02-21T02:46:27.596Z,34.40
2019-02-21T02:48:56.895Z,33.37
2019-02-21T02:51:26.278Z,26.13
2019-02-21T02:53:55.614Z,26.93
2019-02-21T02:56:26.497Z,32.87
2019-02-21T02:58:55.787Z,25.80
2019-02-21T03:01:34.377Z,24.93
2019-02-21T03:03:56.150Z,24.97
2019-02-21T03:06:25.494Z,26.93
2019-02-21T03:08:55.205Z,30.00
2019-02-21T03:11:24.522Z,25.40
2019-02-21T03:13:53.877Z,29.97
2019-02-21T03:16:23.238Z,29.63
2019-02-21T03:18:52.569Z,25.13
2019-02-21T03:21:21.864Z,30.80
2019-02-21T03:23:51.186Z,28.50
2019-02-21T03:26:20.500Z,26.30
2019-02-21T03:28:49.875Z,14.47
2019-02-21T03:31:19.176Z,26.93
2019-02-21T03:33:48.503Z,26.30
2019-02-21T03:36:17.812Z,28.33
2019-02-21T03:38:47.343Z,29.60
2019-02-21T03:41:16.779Z,32.90
2019-02-21T03:43:46.016Z,34.63
2019-02-21T03:46:15.539Z,32.03
2019-02-21T03:48:44.849Z,27.70
2019-02-21T03:51:14.276Z,28.13
2019-02-21T03:53:43.627Z,27.10
2019-02-21T03:56:12.937Z,28.27
2019-02-21T03:58:42.278Z,29.20
2019-02-21T04:01:11.563Z,18.20
2019-02-21T04:03:40.998Z,27.17
2019-02-21T04:06:10.292Z,33.60
2019-02-21T04:08:39.690Z,27.33
2019-02-21T04:11:09.030Z,31.57
2019-02-21T04:13:38.357Z,32.20
2019-02-21T04:16:07.743Z,25.70
2019-02-21T04:18:37.058Z,24.47
2019-02-21T04:21:06.343Z,26.97
2019-02-21T04:23:35.678Z,29.53
2019-02-21T04:26:05.016Z,32.27
2019-02-21T04:28:34.456Z,27.10
2019-02-21T04:31:03.775Z,28.23
2019-02-21T04:33:34.377Z,29.13
2019-02-21T04:36:03.914Z,28.40
2019-02-21T04:38:33.269Z,23.53
2019-02-21T04:41:02.572Z,25.93
2019-02-21T04:43:31.864Z,25.60
2019-02-21T04:46:01.178Z,27.10
2019-02-21T04:48:30.463Z,24.60
2019-02-21T04:50:59.813Z,29.10
2019-02-21T04:53:29.103Z,26.13
2019-02-21T04:55:58.426Z,22.27
2019-02-21T04:58:27.718Z,19.87
2019-02-21T05:00:57.027Z,24.03
2019-02-21T05:03:26.377Z,27.70
2019-02-21T05:05:55.674Z,23.13
2019-02-21T05:08:25.001Z,27.97
2019-02-21T05:10:54.341Z,28.60
2019-02-21T05:13:23.627Z,22.87
2019-02-21T05:15:52.965Z,24.33
2019-02-21T05:18:22.282Z,15.70
2019-02-21T05:20:51.630Z,29.70
2019-02-21T05:23:20.983Z,27.73
2019-02-21T05:25:50.310Z,25.50
2019-02-21T05:28:22.205Z,28.97
2019-02-21T05:30:53.093Z,17.83
2019-02-21T05:33:40.310Z,24.40
2019-02-21T05:36:31.543Z,29.17
2019-02-21T05:39:21.370Z,26.87
2019-02-21T05:42:08.579Z,20.33
2019-02-21T05:44:45.831Z,24.83
2019-02-21T05:47:32.936Z,26.10
2019-02-21T05:50:39.328Z,24.67
2019-02-21T05:53:26.035Z,26.60
2019-02-21T05:56:02.695Z,25.73
2019-02-21T05:58:54.163Z,25.40
2019-02-21T06:01:53.702Z,26.97
2019-02-21T06:04:51.998Z,27.30
2019-02-21T06:07:49.771Z,26.33
2019-02-21T06:10:46.943Z,24.20
2019-02-21T06:13:38.036Z,24.90
2019-02-21T06:16:35.495Z,29.87
2019-02-21T06:19:12.127Z,22.83
2019-02-21T06:22:10.869Z,27.97
2019-02-21T06:24:53.118Z,26.60
2019-02-21T06:27:29.424Z,25.70
2019-02-21T06:30:02.592Z,24.23
2019-02-21T06:32:31.889Z,27.70
2019-02-21T06:35:02.917Z,22.00
2019-02-21T06:37:32.193Z,16.63
2019-02-21T06:40:01.499Z,34.00
2019-02-21T06:42:30.812Z,26.87
2019-02-21T06:45:00.124Z,22.63
2019-02-21T06:47:29.450Z,25.17
2019-02-21T06:50:26.352Z,28.87
2019-02-21T06:52:48.932Z,23.40
2019-02-21T06:55:20.538Z,24.97
2019-02-21T06:57:49.315Z,25.10
2019-02-21T07:00:18.687Z,27.00
2019-02-21T07:02:48.035Z,26.00
2019-02-21T07:05:17.508Z,25.90
2019-02-21T07:07:46.827Z,31.33
2019-02-21T07:10:16.163Z,21.63
2019-02-21T07:12:45.611Z,26.07
2019-02-21T07:15:15.248Z,29.63
2019-02-21T07:17:49.341Z,26.27
2019-02-21T07:20:15.741Z,23.53
2019-02-21T07:22:45.050Z,23.07
2019-02-21T07:25:32.524Z,28.03
2019-02-21T07:28:11.357Z,26.87
2019-02-21T07:30:32.943Z,19.10
2019-02-21T07:33:02.262Z,24.37
2019-02-21T07:35:31.811Z,31.50
2019-02-21T07:38:01.175Z,22.17
2019-02-21T07:40:30.483Z,22.73
2019-02-21T07:42:59.891Z,25.00
2019-02-21T07:45:29.225Z,26.67
2019-02-21T07:47:58.606Z,17.40
2019-02-21T07:50:27.976Z,30.60
2019-02-21T07:53:02.498Z,25.57
2019-02-21T07:55:28.327Z,23.70
2019-02-21T07:57:57.711Z,20.20
2019-02-21T08:00:27.073Z,21.43
2019-02-21T08:02:56.418Z,21.63
2019-02-21T08:05:25.790Z,24.53
2019-02-21T08:07:55.124Z,24.47
2019-02-21T08:10:33.072Z,24.77
2019-02-21T08:12:55.477Z,25.10
2019-02-21T08:15:27.519Z,19.83
2019-02-21T08:17:55.794Z,21.70
2019-02-21T08:20:33.640Z,26.50
2019-02-21T08:22:56.094Z,24.50
2019-02-21T08:25:25.431Z,27.17
2019-02-21T08:27:54.766Z,17.33
2019-02-21T08:30:24.107Z,21.53
2019-02-21T08:33:06.618Z,22.07
2019-02-21T08:35:35.986Z,24.80
2019-02-21T08:38:05.547Z,22.33
2019-02-21T08:40:34.928Z,25.33
2019-02-21T08:43:04.318Z,18.40
2019-02-21T08:45:33.634Z,22.90
2019-02-21T08:48:02.999Z,19.40
2019-02-21T08:50:32.332Z,19.07
2019-02-21T08:53:01.672Z,24.07
2019-02-21T08:55:30.987Z,23.67
2019-02-21T08:58:00.311Z,15.83
2019-02-21T09:00:31.547Z,24.67
2019-02-21T09:03:00.618Z,23.17
2019-02-21T09:05:29.943Z,16.47
2019-02-21T09:07:59.302Z,21.57
2019-02-21T09:10:28.726Z,18.70
2019-02-21T09:12:58.051Z,20.50
2019-02-21T09:15:27.351Z,19.27
2019-02-21T09:17:56.671Z,22.77
2019-02-21T09:20:26.054Z,15.33
2019-02-21T09:22:55.407Z,19.80
2019-02-21T09:25:24.787Z,19.53
2019-02-21T09:27:54.127Z,19.07
2019-02-21T09:30:23.476Z,18.47
2019-02-21T09:32:52.913Z,18.37
2019-02-21T09:35:22.255Z,21.03
2019-02-21T09:37:51.614Z,19.57
2019-02-21T09:40:20.966Z,21.23
2019-02-21T09:42:50.264Z,21.30
2019-02-21T09:45:19.654Z,23.97
2019-02-21T09:47:49.052Z,18.53
2019-02-21T09:50:18.362Z,21.17
2019-02-21T09:52:47.766Z,15.97
2019-02-21T09:55:17.458Z,17.27
2019-02-21T09:57:46.775Z,17.77
2019-02-21T10:00:17.992Z,13.43
2019-02-21T10:02:47.324Z,16.93
2019-02-21T10:05:16.684Z,17.23
2019-02-21T10:07:46.001Z,20.03
2019-02-21T10:10:16.921Z,14.00
2019-02-21T10:12:46.247Z,18.97
2019-02-21T10:15:15.614Z,15.70
2019-02-21T10:17:44.950Z,16.55
2019-02-21T10:20:18.633Z,13.88
2019-02-21T10:22:47.997Z,17.80
2019-02-21T10:25:19.476Z,18.67
2019-02-21T10:27:48.878Z,19.73
2019-02-21T10:30:19.418Z,10.08
2019-02-21T10:32:48.775Z,13.20
2019-02-21T10:35:18.106Z,19.60
2019-02-21T10:37:47.476Z,15.95
2019-02-21T10:40:16.821Z,13.88
2019-02-21T10:42:46.188Z,12.53
2019-02-21T10:45:17.069Z,15.72
2019-02-21T10:47:46.416Z,17.00
2019-02-21T10:50:17.296Z,13.22
2019-02-21T10:52:46.647Z,17.42
2019-02-21T10:55:16.165Z,12.80
2019-02-21T10:57:45.745Z,15.45
2019-02-21T11:00:20.240Z,15.23
2019-02-21T11:02:49.614Z,14.73
2019-02-21T11:05:19.025Z,13.48
2019-02-21T11:07:48.362Z,14.83
2019-02-21T11:10:19.741Z,17.37
2019-02-21T11:12:49.040Z,16.20
2019-02-21T11:15:18.469Z,15.38
2019-02-21T11:17:47.823Z,13.05
2019-02-21T11:20:17.583Z,15.08
2019-02-21T11:22:46.894Z,15.40
2019-02-21T11:25:16.242Z,17.50
2019-02-21T11:27:45.558Z,9.68
2019-02-21T11:30:16.462Z,14.50
2019-02-21T11:32:45.830Z,11.95
2019-02-21T11:35:15.250Z,11.88
2019-02-21T11:37:47.092Z,13.00
2019-02-21T11:40:15.871Z,12.07
2019-02-21T11:42:45.245Z,9.43
2019-02-21T11:45:15.483Z,13.43
2019-02-21T11:47:45.025Z,8.80
2019-02-21T11:50:15.741Z,11.03
2019-02-21T11:52:45.077Z,8.25
2019-02-21T11:55:16.567Z,11.30
2019-02-21T11:57:45.928Z,9.03
2019-02-21T12:00:17.848Z,13.35
2019-02-21T12:02:47.138Z,14.95
2019-02-21T12:05:17.785Z,10.55
2019-02-21T12:07:47.327Z,9.63
2019-02-21T12:10:16.639Z,12.28
2019-02-21T12:12:45.971Z,12.60
2019-02-21T12:15:15.347Z,14.68
2019-02-21T12:17:44.647Z,10.20
2019-02-21T12:20:14.121Z,9.68
2019-02-21T12:22:43.469Z,14.43
2019-02-21T12:25:14.142Z,19.77
2019-02-21T12:27:43.471Z,15.80
2019-02-21T12:30:15.007Z,10.40
2019-02-21T12:32:44.369Z,10.08
2019-02-21T12:35:13.772Z,13.53
2019-02-21T12:37:43.100Z,14.03
2019-02-21T12:40:14.595Z,15.23
2019-02-21T12:42:43.970Z,13.80
2019-02-21T12:45:15.122Z,13.22
2019-02-21T12:47:50.687Z,17.95
2019-02-21T12:50:15.539Z,12.10
2019-02-21T12:52:44.981Z,11.15
2019-02-21T12:55:26.411Z,17.50
2019-02-21T12:57:45.684Z,13.38
2019-02-21T13:00:17.179Z,15.85
2019-02-21T13:02:46.486Z,18.07
2019-02-21T13:05:15.803Z,11.73
2019-02-21T13:07:45.142Z,14.53
2019-02-21T13:10:16.072Z,11.18
2019-02-21T13:12:45.425Z,11.00
2019-02-21T13:15:14.920Z,13.00
2019-02-21T13:17:44.288Z,16.90
2019-02-21T13:20:13.594Z,8.58
2019-02-21T13:22:42.929Z,12.35
2019-02-21T13:25:12.603Z,12.47
2019-02-21T13:27:41.947Z,11.60
2019-02-21T13:30:13.451Z,14.98
2019-02-21T13:32:42.780Z,12.80
2019-02-21T13:35:12.144Z,14.18
2019-02-21T13:37:41.494Z,13.60
2019-02-21T13:40:12.313Z,14.38
2019-02-21T13:42:41.682Z,10.68
2019-02-21T13:45:11.590Z,16.52
2019-02-21T13:47:40.975Z,11.43
2019-02-21T13:50:14.956Z,13.62
2019-02-21T13:52:44.323Z,13.83
2019-02-21T13:55:13.699Z,14.68
2019-02-21T13:57:42.973Z,17.62
2019-02-21T14:00:14.588Z,12.85
2019-02-21T14:02:43.903Z,14.00
2019-02-21T14:05:14.056Z,15.63
2019-02-21T14:07:43.364Z,10.53
2019-02-21T14:10:12.734Z,14.00
2019-02-21T14:12:42.086Z,14.80
2019-02-21T14:15:14.306Z,13.03
2019-02-21T14:17:43.616Z,14.95
2019-02-21T14:20:12.971Z,13.00
2019-02-21T14:22:42.349Z,13.50
2019-02-21T14:25:11.812Z,14.87
2019-02-21T14:27:41.133Z,13.22
2019-02-21T14:30:12.858Z,13.83
2019-02-21T14:32:42.199Z,16.20
2019-02-21T14:35:12.049Z,18.00
2019-02-21T14:37:41.398Z,14.03
2019-02-21T14:40:11.334Z,15.30
2019-02-21T14:42:40.674Z,20.10
2019-02-21T14:45:12.647Z,15.98
2019-02-21T14:47:41.944Z,16.35
2019-02-21T14:50:11.567Z,17.65
2019-02-21T14:52:40.958Z,15.80
2019-02-21T14:55:11.103Z,14.38
2019-02-21T14:57:41.386Z,17.65
2019-02-21T15:00:19.688Z,14.80
2019-02-21T15:02:49.099Z,18.65
2019-02-21T15:05:18.689Z,20.80
2019-02-21T15:07:48.076Z,13.35
2019-02-21T15:10:17.447Z,19.27
2019-02-21T15:12:46.798Z,20.25
2019-02-21T15:15:16.944Z,20.57
2019-02-21T15:17:46.517Z,21.15
2019-02-21T15:20:16.494Z,18.80
2019-02-21T15:22:45.855Z,18.15
2019-02-21T15:25:15.208Z,21.62
2019-02-21T15:27:44.564Z,19.52
2019-02-21T15:30:15.865Z,22.15
2019-02-21T15:32:45.236Z,21.95
2019-02-21T15:35:14.601Z,18.80
2019-02-21T15:37:45.056Z,21.30
2019-02-21T15:40:14.666Z,21.87
2019-02-21T15:42:43.973Z,20.77
2019-02-21T15:45:22.808Z,13.58
2019-02-21T15:47:46.521Z,19.67
2019-02-21T15:50:15.862Z,23.25
2019-02-21T15:52:45.451Z,17.82
2019-02-21T15:55:15.381Z,24.45
2019-02-21T15:57:44.805Z,22.10
2019-02-21T16:00:16.946Z,22.37
2019-02-21T16:02:46.347Z,21.25
2019-02-21T16:05:15.686Z,24.25
2019-02-21T16:07:45.031Z,22.20
2019-02-21T16:10:16.702Z,16.73
2019-02-21T16:12:46.151Z,23.93
2019-02-21T16:15:16.553Z,19.55
2019-02-21T16:17:46.142Z,23.30
2019-02-21T16:20:15.827Z,20.65
2019-02-21T16:22:45.279Z,21.77
2019-02-21T16:25:16.915Z,23.00
2019-02-21T16:27:46.233Z,24.87
2019-02-21T16:30:15.871Z,19.42
2019-02-21T16:32:45.217Z,24.23
2019-02-21T16:35:14.606Z,19.80
2019-02-21T16:37:43.940Z,20.92
2019-02-21T16:40:13.921Z,24.43
2019-02-21T16:42:43.278Z,24.82
2019-02-21T16:45:13.512Z,23.15
2019-02-21T16:47:42.853Z,21.63
2019-02-21T16:50:12.859Z,19.15
2019-02-21T16:52:42.249Z,25.55
2019-02-21T16:55:13.953Z,28.27
2019-02-21T16:57:43.257Z,22.73
2019-02-21T17:00:13.606Z,25.55
2019-02-21T17:02:42.939Z,22.22
2019-02-21T17:05:12.313Z,22.02
2019-02-21T17:07:41.677Z,23.57
2019-02-21T17:10:11.040Z,25.70
2019-02-21T17:12:40.429Z,27.93
2019-02-21T17:15:11.052Z,27.42
2019-02-21T17:17:40.399Z,33.20
2019-02-21T17:20:11.602Z,25.57
2019-02-21T17:22:40.966Z,29.03
2019-02-21T17:25:11.112Z,31.17
2019-02-21T17:27:40.510Z,30.33
2019-02-21T17:30:11.257Z,29.90
2019-02-21T17:32:40.617Z,29.47
2019-02-21T17:35:10.016Z,29.07
2019-02-21T17:37:39.384Z,32.13
2019-02-21T17:40:10.686Z,23.83
2019-02-21T17:42:39.986Z,32.73
2019-02-21T17:45:10.152Z,29.23
2019-02-21T17:47:39.447Z,28.90
2019-02-21T17:50:11.041Z,35.63
2019-02-21T17:52:40.506Z,26.63
2019-02-21T17:55:09.917Z,33.10
2019-02-21T17:57:39.278Z,27.07
2019-02-21T18:00:11.759Z,31.17
2019-02-21T18:02:41.091Z,28.57
2019-02-21T18:05:10.542Z,29.13
2019-02-21T18:07:39.851Z,36.17
2019-02-21T18:10:11.295Z,30.00
2019-02-21T18:12:40.718Z,33.67
2019-02-21T18:15:10.280Z,34.53
2019-02-21T18:17:39.599Z,35.70
2019-02-21T18:20:09.695Z,26.10
2019-02-21T18:22:39.074Z,25.47
2019-02-21T18:25:11.671Z,29.80
2019-02-21T18:27:41.029Z,33.50
2019-02-21T18:30:11.786Z,26.53
2019-02-21T18:32:41.147Z,26.30
2019-02-21T18:35:10.612Z,24.83
2019-02-21T18:37:47.053Z,20.73
2019-02-21T18:40:17.257Z,28.37
2019-02-21T18:42:43.929Z,27.90
2019-02-21T18:45:13.280Z,26.63
2019-02-21T18:47:42.619Z,25.90
2019-02-21T18:50:12.005Z,31.93
2019-02-21T18:52:41.330Z,26.13
2019-02-21T18:55:10.655Z,34.40
2019-02-21T18:57:40.050Z,32.40
2019-02-21T19:00:11.302Z,25.17
2019-02-21T19:02:40.642Z,30.50
2019-02-21T19:05:09.971Z,32.20
2019-02-21T19:07:39.328Z,30.83
2019-02-21T19:10:10.759Z,32.07
2019-02-21T19:12:40.126Z,27.23
2019-02-21T19:15:09.435Z,31.67
2019-02-21T19:17:38.815Z,32.10
2019-02-21T19:20:09.383Z,32.57
2019-02-21T19:22:38.754Z,33.13
2019-02-21T19:25:08.913Z,36.50
2019-02-21T19:27:38.205Z,37.33
2019-02-21T19:30:17.447Z,32.97
2019-02-21T19:32:46.809Z,34.67
2019-02-21T19:35:16.367Z,31.63
2019-02-21T19:37:45.724Z,27.90
2019-02-21T19:40:15.019Z,35.43
2019-02-21T19:42:44.418Z,36.20
2019-02-21T19:45:13.715Z,27.77
2019-02-21T19:47:43.095Z,30.87
2019-02-21T19:50:12.398Z,35.27
2019-02-21T19:52:41.765Z,29.10
2019-02-21T19:55:11.117Z,32.60
2019-02-21T19:57:40.503Z,31.53
2019-02-21T20:00:12.203Z,31.97
2019-02-21T20:02:41.577Z,28.57
2019-02-21T20:05:10.912Z,29.77
2019-02-21T20:07:40.286Z,28.27
2019-02-21T20:10:09.606Z,26.10
2019-02-21T20:12:38.925Z,30.17
2019-02-21T20:15:08.267Z,27.20
2019-02-21T20:17:37.637Z,31.50
2019-02-21T20:20:07.815Z,30.13
2019-02-21T20:22:37.131Z,30.27
2019-02-21T20:25:06.455Z,28.57
2019-02-21T20:27:35.809Z,24.60
2019-02-21T20:30:05.322Z,21.97
2019-02-21T20:32:34.667Z,33.63
2019-02-21T20:35:04.040Z,28.33
2019-02-21T20:37:33.397Z,30.07
2019-02-21T20:40:02.690Z,31.30
2019-02-21T20:42:32.014Z,30.37
2019-02-21T20:45:01.335Z,32.60
2019-02-21T20:47:30.677Z,32.33
2019-02-21T20:50:00.012Z,31.47
2019-02-21T20:52:29.395Z,32.33
2019-02-21T20:54:58.709Z,34.23
2019-02-21T20:57:28.285Z,31.13
2019-02-21T20:59:57.655Z,34.63
2019-02-21T21:02:27.005Z,29.20
2019-02-21T21:04:56.337Z,29.20
2019-02-21T21:07:25.666Z,31.53
2019-02-21T21:09:55.054Z,34.67
2019-02-21T21:12:24.416Z,36.00
2019-02-21T21:14:53.733Z,30.27
2019-02-21T21:17:23.122Z,32.07
2019-02-21T21:19:52.434Z,30.53
2019-02-21T21:22:21.794Z,34.90
2019-02-21T21:24:51.368Z,32.50
2019-02-21T21:27:20.654Z,32.40
2019-02-21T21:29:49.968Z,38.03
2019-02-21T21:32:19.340Z,31.57
2019-02-21T21:34:48.635Z,35.67
2019-02-21T21:37:18.004Z,33.87
2019-02-21T21:39:47.296Z,31.50
2019-02-21T21:42:16.681Z,30.10
2019-02-21T21:44:45.980Z,31.63
2019-02-21T21:47:15.323Z,32.77
2019-02-21T21:49:44.620Z,31.47
2019-02-21T21:52:13.974Z,34.83
2019-02-21T21:54:43.275Z,27.70
2019-02-21T21:57:12.672Z,33.67
2019-02-21T21:59:42.005Z,27.67
2019-02-21T22:02:11.358Z,30.47
2019-02-21T22:04:40.682Z,25.57
2019-02-21T22:07:10.054Z,27.83
2019-02-21T22:09:39.381Z,28.90
2019-02-21T22:12:08.670Z,34.17
2019-02-21T22:14:38.008Z,29.10
2019-02-21T22:17:07.310Z,33.17
2019-02-21T22:19:36.697Z,26.93
2019-02-21T22:22:06.026Z,26.43
2019-02-21T22:24:35.307Z,27.43
2019-02-21T22:27:04.673Z,26.13
2019-02-21T22:29:34.028Z,29.70
2019-02-21T22:32:03.347Z,30.13
2019-02-21T22:34:36.524Z,33.60
2019-02-21T22:37:11.138Z,31.43
2019-02-21T22:39:44.754Z,27.60
2019-02-21T22:42:17.547Z,30.73
2019-02-21T22:44:51.050Z,24.90
2019-02-21T22:47:20.428Z,28.67
2019-02-21T22:49:49.788Z,26.07
2019-02-21T22:52:19.067Z,26.03
2019-02-21T22:54:48.426Z,24.20
2019-02-21T22:57:17.734Z,26.60
2019-02-21T22:59:47.043Z,27.93
2019-02-21T23:02:16.477Z,27.87
2019-02-21T23:05:17.659Z,27.33
2019-02-21T23:08:15.997Z,30.13
2019-02-21T23:10:45.332Z,30.20
2019-02-21T23:13:14.716Z,29.70
2019-02-21T23:15:44.043Z,31.53
2019-02-21T23:18:13.437Z,22.40
2019-02-21T23:20:42.776Z,27.73
2019-02-21T23:23:12.134Z,27.40
2019-02-21T23:25:41.540Z,24.53
2019-02-21T23:28:10.927Z,24.93
2019-02-21T23:30:40.251Z,28.33
2019-02-21T23:33:09.591Z,26.80
2019-02-21T23:35:38.918Z,25.57
2019-02-21T23:38:08.236Z,29.17
2019-02-21T23:40:37.557Z,29.87
2019-02-21T23:43:06.933Z,30.83
2019-02-21T23:45:36.296Z,27.30
2019-02-21T23:48:05.658Z,32.20
2019-02-21T23:50:35.039Z,30.10
2019-02-21T23:53:04.338Z,27.47
2019-02-21T23:55:33.699Z,25.37
2019-02-21T23:58:02.999Z,20.97
